Time;durP1;ratioP1;P1;durP2;ratioP2;P2;SDS_P1;SDS_P2;PMS_P1;PMS_P2;Temp;Humidity;BMP_temperature;BMP_pressure;BME280_temperature;BME280_humidity;BME280_pressure;Samples;Min_cycle;Max_cycle;Signal;HPM_P1;HPM_P2
2021/01/11 00:00:25;;;;;;;16.42;10.02;;;3.60;99.90;;;;;;5035459;28;20136;-75
2021/01/11 00:02:51;;;;;;;15.00;10.25;;;3.60;99.90;;;;;;5035038;28;20025;-77
2021/01/11 00:05:18;;;;;;;14.65;10.60;;;3.60;99.90;;;;;;5034931;28;20359;-78
2021/01/11 00:07:44;;;;;;;19.90;11.57;;;3.60;99.90;;;;;;5034887;28;20408;-79
2021/01/11 00:10:12;;;;;;;13.35;9.48;;;3.60;99.90;;;;;;5043152;28;20021;-76
2021/01/11 00:12:43;;;;;;;22.83;10.00;;;3.60;99.90;;;;;;5057281;28;20036;-77
2021/01/11 00:15:12;;;;;;;15.45;9.77;;;3.60;99.90;;;;;;5046556;28;20030;-75
2021/01/11 00:17:37;;;;;;;16.85;10.02;;;3.60;99.90;;;;;;5033352;28;20029;-76
2021/01/11 00:20:05;;;;;;;12.50;8.93;;;3.60;99.90;;;;;;5035254;28;20017;-78
2021/01/11 00:22:31;;;;;;;15.13;8.95;;;3.60;99.90;;;;;;5035000;28;20018;-79
2021/01/11 00:24:56;;;;;;;14.60;9.38;;;3.60;99.90;;;;;;5035113;28;20045;-78
2021/01/11 00:27:22;;;;;;;14.02;8.77;;;3.60;99.90;;;;;;5035417;28;20013;-77
2021/01/11 00:29:48;;;;;;;14.15;7.97;;;3.60;99.90;;;;;;5035174;28;20455;-77
2021/01/11 00:32:13;;;;;;;16.50;8.48;;;3.60;99.90;;;;;;5034844;28;20060;-77
2021/01/11 00:34:39;;;;;;;14.00;9.43;;;3.60;99.90;;;;;;5034931;28;20521;-76
2021/01/11 00:37:05;;;;;;;11.55;8.18;;;3.60;99.90;;;;;;5033610;28;20030;-77
2021/01/11 00:39:31;;;;;;;11.88;8.40;;;3.60;99.90;;;;;;5033677;28;20222;-77
2021/01/11 00:42:00;;;;;;;12.15;8.15;;;3.60;99.90;;;;;;5034638;28;20021;-78
2021/01/11 00:44:27;;;;;;;15.27;8.63;;;3.60;99.90;;;;;;5034932;28;20104;-77
2021/01/11 00:47:00;;;;;;;22.42;11.60;;;3.60;99.90;;;;;;5034826;28;20025;-78
2021/01/11 00:49:27;;;;;;;17.55;9.45;;;3.60;99.90;;;;;;5034204;28;20024;-76
2021/01/11 00:51:53;;;;;;;23.70;11.15;;;3.60;99.90;;;;;;5034585;28;20021;-76
2021/01/11 00:54:19;;;;;;;15.57;9.70;;;3.60;99.90;;;;;;5034528;28;20100;-78
2021/01/11 00:56:44;;;;;;;133.13;36.65;;;3.60;99.90;;;;;;5034429;28;20448;-77
2021/01/11 00:59:11;;;;;;;23.10;10.45;;;3.60;99.90;;;;;;5034817;28;20433;-76
2021/01/11 01:01:36;;;;;;;14.82;9.57;;;3.60;99.90;;;;;;5034720;28;20045;-76
2021/01/11 01:04:04;;;;;;;15.23;9.20;;;3.60;99.90;;;;;;5035022;28;20564;-76
2021/01/11 01:06:30;;;;;;;13.52;8.70;;;3.60;99.90;;;;;;5034207;28;20053;-75
2021/01/11 01:08:56;;;;;;;18.40;10.15;;;3.50;99.90;;;;;;5033373;28;20458;-75
2021/01/11 01:11:22;;;;;;;12.57;8.68;;;3.50;99.90;;;;;;5051845;28;20028;-75
2021/01/11 01:13:49;;;;;;;13.90;9.25;;;3.50;99.90;;;;;;5034352;28;20310;-75
2021/01/11 01:16:24;;;;;;;13.43;8.70;;;3.40;99.90;;;;;;5034325;28;20021;-76
2021/01/11 01:18:50;;;;;;;11.65;8.10;;;3.40;99.90;;;;;;5034035;28;20057;-76
2021/01/11 01:21:16;;;;;;;12.43;9.23;;;3.40;99.90;;;;;;5034233;28;20045;-76
2021/01/11 01:23:42;;;;;;;11.70;7.97;;;3.40;99.90;;;;;;5034425;28;20091;-75
2021/01/11 01:26:08;;;;;;;12.55;8.80;;;3.40;99.90;;;;;;5033782;28;20535;-78
2021/01/11 01:28:33;;;;;;;13.40;8.07;;;3.40;99.90;;;;;;5033904;28;20057;-77
2021/01/11 01:30:59;;;;;;;12.82;8.20;;;3.40;99.90;;;;;;5033845;28;20374;-76
2021/01/11 01:33:25;;;;;;;12.95;8.23;;;3.40;99.90;;;;;;5033350;28;20033;-77
2021/01/11 01:35:51;;;;;;;11.40;8.15;;;3.40;99.90;;;;;;5033563;28;20029;-77
2021/01/11 01:38:16;;;;;;;11.43;7.43;;;3.40;99.90;;;;;;5041046;28;20382;-78
2021/01/11 01:40:45;;;;;;;12.60;8.82;;;3.40;99.90;;;;;;5033224;28;20025;-76
2021/01/11 01:43:12;;;;;;;11.63;7.72;;;3.40;99.90;;;;;;5032758;28;20115;-77
2021/01/11 01:45:38;;;;;;;11.27;7.95;;;3.50;99.90;;;;;;5033310;28;20037;-77
2021/01/11 01:48:08;;;;;;;10.75;7.72;;;3.40;99.90;;;;;;5033760;28;20021;-77
2021/01/11 01:50:37;;;;;;;13.63;7.55;;;3.40;99.90;;;;;;5033873;28;20025;-76
2021/01/11 01:53:03;;;;;;;14.13;8.32;;;3.40;99.90;;;;;;5033579;28;20481;-76
2021/01/11 01:55:29;;;;;;;12.75;8.63;;;3.30;99.90;;;;;;5033527;28;20030;-76
2021/01/11 01:58:00;;;;;;;13.35;8.63;;;3.30;99.90;;;;;;5015910;28;20029;-76
2021/01/11 02:00:26;;;;;;;13.02;8.40;;;3.30;99.90;;;;;;5032964;28;20037;-77
2021/01/11 02:02:52;;;;;;;14.82;8.63;;;3.40;99.90;;;;;;5035405;28;20100;-76
2021/01/11 02:05:18;;;;;;;13.95;8.98;;;3.40;99.90;;;;;;5043894;28;20157;-77
2021/01/11 02:07:59;;;;;;;18.83;9.35;;;3.30;99.90;;;;;;5046447;28;20014;-75
2021/01/11 02:11:09;;;;;;;13.23;9.25;;;3.20;99.90;;;;;;5032521;28;20745;-77
2021/01/11 02:14:06;;;;;;;13.77;8.05;;;3.20;99.90;;;;;;5028506;28;20032;-76
2021/01/11 02:16:50;;;;;;;19.02;11.23;;;3.20;99.90;;;;;;5039968;28;20057;-78
2021/01/11 02:19:16;;;;;;;12.82;8.98;;;3.20;99.90;;;;;;5020026;28;20084;-76
2021/01/11 02:21:51;;;;;;;18.08;9.80;;;3.20;99.90;;;;;;5043285;28;20069;-76
2021/01/11 02:24:51;;;;;;;14.57;9.02;;;3.20;99.90;;;;;;5046831;28;20052;-77
2021/01/11 02:27:16;;;;;;;12.07;8.55;;;3.20;99.90;;;;;;5048717;28;20072;-76
2021/01/11 02:30:06;;;;;;;12.70;8.60;;;3.10;99.90;;;;;;5050436;28;20013;-77
2021/01/11 02:32:33;;;;;;;12.85;8.95;;;3.20;99.90;;;;;;5049263;28;20052;-78
2021/01/11 02:35:03;;;;;;;12.55;8.55;;;3.10;99.90;;;;;;5041998;28;20017;-78
2021/01/11 02:37:31;;;;;;;15.25;8.93;;;3.10;99.90;;;;;;5042636;28;20029;-77
2021/01/11 02:39:56;;;;;;;13.30;8.10;;;3.10;99.90;;;;;;5020832;28;20064;-75
2021/01/11 02:42:22;;;;;;;12.18;7.78;;;3.10;99.90;;;;;;5037302;28;20017;-77
2021/01/11 02:44:48;;;;;;;13.85;8.93;;;3.10;99.90;;;;;;5043880;28;20386;-78
2021/01/11 02:47:20;;;;;;;15.05;9.35;;;3.10;99.90;;;;;;5041488;28;20025;-77
2021/01/11 02:49:52;;;;;;;13.40;9.10;;;3.10;99.90;;;;;;5047799;28;20044;-77
2021/01/11 02:52:32;;;;;;;12.75;8.30;;;3.10;99.90;;;;;;5046330;28;20366;-77
2021/01/11 02:55:07;;;;;;;14.10;9.32;;;3.10;99.90;;;;;;5048021;28;20147;-75
2021/01/11 02:57:46;;;;;;;12.65;8.43;;;3.10;99.90;;;;;;5050856;28;20500;-77
2021/01/11 03:00:13;;;;;;;13.38;8.30;;;3.00;99.90;;;;;;5038286;28;20618;-76
2021/01/11 03:02:44;;;;;;;11.50;8.05;;;3.00;99.90;;;;;;5034089;28;20025;-78
2021/01/11 03:05:12;;;;;;;11.80;7.93;;;3.00;99.90;;;;;;5033747;28;20124;-77
2021/01/11 03:07:37;;;;;;;12.93;8.25;;;3.10;99.90;;;;;;5032121;28;20036;-76
2021/01/11 03:10:04;;;;;;;13.55;8.68;;;3.10;99.90;;;;;;5032097;28;20021;-77
2021/01/11 03:12:31;;;;;;;10.98;7.18;;;3.00;99.90;;;;;;5032574;28;20454;-77
2021/01/11 03:14:56;;;;;;;11.27;7.18;;;3.10;99.90;;;;;;5039840;28;20112;-78
2021/01/11 03:17:22;;;;;;;16.23;7.88;;;3.00;99.90;;;;;;5032588;28;20121;-78
2021/01/11 03:19:48;;;;;;;10.50;7.28;;;3.10;99.90;;;;;;5032579;28;20029;-78
2021/01/11 03:22:14;;;;;;;10.43;7.00;;;3.00;99.90;;;;;;5031968;28;20026;-79
2021/01/11 03:24:40;;;;;;;12.45;7.82;;;3.00;99.90;;;;;;5032513;28;20032;-77
2021/01/11 03:27:06;;;;;;;10.48;7.15;;;3.00;99.90;;;;;;5033084;28;20029;-77
2021/01/11 03:29:32;;;;;;;10.23;7.15;;;3.10;99.90;;;;;;5013885;28;20033;-76
2021/01/11 03:31:57;;;;;;;14.15;7.45;;;3.10;99.90;;;;;;5030524;28;20022;-76
2021/01/11 03:34:23;;;;;;;11.55;7.18;;;3.00;99.90;;;;;;5031651;28;20033;-76
2021/01/11 03:36:49;;;;;;;20.75;7.80;;;3.10;99.90;;;;;;5032030;28;20013;-76
2021/01/11 03:39:15;;;;;;;11.82;7.43;;;3.00;99.90;;;;;;5031514;28;20101;-76
2021/01/11 03:41:42;;;;;;;12.73;8.02;;;3.00;99.90;;;;;;5030166;28;20021;-76
2021/01/11 03:44:09;;;;;;;11.43;7.20;;;3.00;99.90;;;;;;5029834;28;20029;-76
2021/01/11 03:46:35;;;;;;;11.15;7.30;;;3.00;99.90;;;;;;5030213;28;20064;-77
2021/01/11 03:49:01;;;;;;;12.82;8.30;;;3.00;99.90;;;;;;5030042;28;20030;-76
2021/01/11 03:51:27;;;;;;;11.60;7.38;;;3.00;99.90;;;;;;5030392;28;20100;-78
2021/01/11 03:53:53;;;;;;;10.68;7.32;;;3.00;99.90;;;;;;5029734;28;20022;-75
2021/01/11 03:56:18;;;;;;;11.85;7.95;;;3.00;99.90;;;;;;5030755;28;20045;-77
2021/01/11 03:58:44;;;;;;;11.27;8.02;;;3.00;99.90;;;;;;5031022;28;20030;-77
2021/01/11 04:01:10;;;;;;;16.45;8.18;;;3.00;99.90;;;;;;5031567;28;20049;-76
2021/01/11 04:03:35;;;;;;;9.77;7.35;;;3.00;99.90;;;;;;5031705;28;20381;-77
2021/01/11 04:06:01;;;;;;;11.50;7.65;;;3.00;99.90;;;;;;5031808;28;20393;-76
2021/01/11 04:08:27;;;;;;;11.45;7.45;;;3.00;99.90;;;;;;5013663;28;20029;-78
2021/01/11 04:10:53;;;;;;;11.57;7.60;;;3.00;99.90;;;;;;5031895;28;20069;-76
2021/01/11 04:13:20;;;;;;;17.02;8.48;;;3.00;99.90;;;;;;5031472;28;20501;-78
2021/01/11 04:15:46;;;;;;;15.10;8.57;;;3.00;99.90;;;;;;5031582;28;20381;-77
2021/01/11 04:18:12;;;;;;;12.57;8.15;;;3.00;99.90;;;;;;5031658;28;20028;-76
2021/01/11 04:20:38;;;;;;;11.55;8.38;;;3.00;99.90;;;;;;5031721;28;20028;-75
2021/01/11 04:23:04;;;;;;;13.88;8.45;;;3.00;99.90;;;;;;5031412;28;20029;-77
2021/01/11 04:25:31;;;;;;;13.23;8.35;;;3.00;99.90;;;;;;5031170;28;20049;-77
2021/01/11 04:27:58;;;;;;;11.32;7.22;;;2.90;99.90;;;;;;5030992;28;20025;-76
2021/01/11 04:30:25;;;;;;;14.43;8.20;;;2.90;99.90;;;;;;5031131;28;20496;-77
2021/01/11 04:32:51;;;;;;;12.57;8.18;;;3.00;99.90;;;;;;5031584;28;20083;-77
2021/01/11 04:35:21;;;;;;;12.68;7.50;;;2.90;99.90;;;;;;5032113;28;20022;-78
2021/01/11 04:37:47;;;;;;;12.40;7.65;;;2.90;99.90;;;;;;5031813;28;20053;-77
2021/01/11 04:40:13;;;;;;;11.80;7.65;;;3.00;99.90;;;;;;5031349;28;20489;-75
2021/01/11 04:42:47;;;;;;;12.55;7.97;;;2.90;99.90;;;;;;5031808;28;20021;-78
2021/01/11 04:45:14;;;;;;;12.13;7.63;;;2.90;99.90;;;;;;5034998;28;20121;-76
2021/01/11 04:47:40;;;;;;;12.00;8.10;;;2.90;99.90;;;;;;5034912;28;20017;-78
2021/01/11 04:50:07;;;;;;;16.52;9.00;;;2.90;99.90;;;;;;5034870;28;20041;-77
2021/01/11 04:52:34;;;;;;;13.43;8.75;;;2.90;99.90;;;;;;5016687;28;20032;-78
2021/01/11 04:55:06;;;;;;;15.15;8.45;;;2.90;99.90;;;;;;5035422;28;20425;-78
2021/01/11 04:57:33;;;;;;;12.43;7.97;;;2.90;99.90;;;;;;5034974;28;20018;-77
2021/01/11 05:00:06;;;;;;;14.60;8.45;;;2.90;99.90;;;;;;5035027;28;20111;-77
2021/01/11 05:02:32;;;;;;;12.05;8.07;;;2.90;99.90;;;;;;5034410;28;20037;-78
2021/01/11 05:04:58;;;;;;;11.68;8.07;;;2.90;99.90;;;;;;5021274;28;20029;-78
2021/01/11 05:07:31;;;;;;;12.35;8.30;;;2.90;99.90;;;;;;5034771;28;20460;-78
2021/01/11 05:09:57;;;;;;;11.82;8.18;;;2.90;99.90;;;;;;5034529;28;20390;-76
2021/01/11 05:12:24;;;;;;;15.13;9.52;;;2.90;99.90;;;;;;5034794;28;20044;-77
2021/01/11 05:15:15;;;;;;;14.05;8.88;;;2.90;99.90;;;;;;5034666;28;20010;-76
2021/01/11 05:17:45;;;;;;;14.13;9.23;;;2.90;99.90;;;;;;5034505;28;20025;-77
2021/01/11 05:20:13;;;;;;;16.30;8.93;;;2.90;99.90;;;;;;5034457;28;20053;-75
2021/01/11 05:22:39;;;;;;;13.60;8.27;;;2.90;99.90;;;;;;5033428;28;20037;-76
2021/01/11 05:25:16;;;;;;;15.23;9.43;;;2.90;99.90;;;;;;5033555;28;20030;-79
2021/01/11 05:27:43;;;;;;;14.52;8.95;;;2.90;99.90;;;;;;5021800;28;20021;-78
2021/01/11 05:30:24;;;;;;;14.13;8.73;;;2.90;99.90;;;;;;5015517;28;20127;-76
2021/01/11 05:32:50;;;;;;;14.43;9.13;;;2.90;99.90;;;;;;5024016;28;20029;-76
2021/01/11 05:35:22;;;;;;;14.32;8.48;;;2.90;99.90;;;;;;5034439;28;20037;-78
2021/01/11 05:37:48;;;;;;;13.52;8.80;;;2.90;99.90;;;;;;5033739;28;20052;-77
2021/01/11 05:40:16;;;;;;;14.93;9.65;;;2.90;99.90;;;;;;5034862;28;20481;-77
2021/01/11 05:42:47;;;;;;;17.92;9.90;;;2.90;99.90;;;;;;5033976;28;20026;-76
2021/01/11 05:45:21;;;;;;;15.02;9.32;;;2.90;99.90;;;;;;5034336;28;20557;-76
2021/01/11 05:47:56;;;;;;;14.88;9.13;;;2.90;99.90;;;;;;5033250;28;20026;-77
2021/01/11 05:50:25;;;;;;;19.60;9.32;;;2.90;99.90;;;;;;5034910;28;20401;-76
2021/01/11 05:52:51;;;;;;;14.93;10.10;;;2.90;99.90;;;;;;5035924;28;20409;-76
2021/01/11 05:55:32;;;;;;;16.50;9.60;;;2.90;99.90;;;;;;5033168;28;20032;-76
2021/01/11 05:58:03;;;;;;;13.82;9.02;;;2.80;99.90;;;;;;5033402;28;20362;-76
2021/01/11 06:00:34;;;;;;;16.38;9.73;;;2.90;99.90;;;;;;5037954;28;20045;-77
2021/01/11 06:03:01;;;;;;;17.00;10.18;;;2.80;99.90;;;;;;5016560;28;20085;-77
2021/01/11 06:05:28;;;;;;;16.33;9.73;;;2.90;99.90;;;;;;5047941;28;20078;-77
2021/01/11 06:07:55;;;;;;;11.63;8.13;;;2.80;99.90;;;;;;5049089;28;20108;-77
2021/01/11 06:10:22;;;;;;;15.13;9.15;;;2.80;99.90;;;;;;5046387;28;20033;-76
2021/01/11 06:12:49;;;;;;;16.83;9.85;;;2.80;99.90;;;;;;5049440;28;20028;-78
2021/01/11 06:15:17;;;;;;;14.85;9.65;;;2.80;99.90;;;;;;5023782;28;20366;-76
2021/01/11 06:17:44;;;;;;;15.27;9.38;;;2.80;99.90;;;;;;5022071;28;20048;-77
2021/01/11 06:20:19;;;;;;;14.65;9.48;;;2.80;99.90;;;;;;5032954;28;20378;-76
2021/01/11 06:22:44;;;;;;;14.20;9.07;;;2.80;99.90;;;;;;5032065;28;20413;-76
2021/01/11 06:25:26;;;;;;;14.25;8.77;;;2.90;99.90;;;;;;5033045;28;20096;-75
2021/01/11 06:27:55;;;;;;;;;;;2.80;99.90;;;;;;5034125;28;20029;-77
2021/01/11 06:30:32;;;;;;;18.08;9.25;;;2.80;99.90;;;;;;5034700;28;20043;-73
2021/01/11 06:33:06;;;;;;;14.07;8.57;;;2.80;99.90;;;;;;5021638;28;20068;-75
2021/01/11 06:35:36;;;;;;;14.57;9.20;;;2.80;99.90;;;;;;5032560;28;20045;-75
2021/01/11 06:38:28;;;;;;;17.52;9.00;;;2.80;99.90;;;;;;5032361;28;20088;-76
2021/01/11 06:40:55;;;;;;;;;;;2.80;99.90;;;;;;5031349;28;20357;-77
2021/01/11 06:43:23;;;;;;;13.52;8.75;;;2.80;99.90;;;;;;5032527;28;20321;-74
2021/01/11 06:45:50;;;;;;;15.82;9.25;;;2.80;99.90;;;;;;5032415;28;20045;-74
2021/01/11 06:48:20;;;;;;;14.95;9.38;;;2.80;99.90;;;;;;5027472;28;20048;-75
2021/01/11 06:50:48;;;;;;;15.73;9.30;;;2.80;99.90;;;;;;5030654;28;20026;-73
2021/01/11 06:53:25;;;;;;;19.70;10.15;;;2.80;99.90;;;;;;5021830;28;20100;-76
2021/01/11 06:56:07;;;;;;;14.07;9.93;;;2.70;99.90;;;;;;5025724;28;20109;-75
2021/01/11 06:58:34;;;;;;;14.18;9.13;;;2.80;99.90;;;;;;5023551;28;20104;-77
2021/01/11 07:01:13;;;;;;;12.93;8.15;;;2.80;99.90;;;;;;5031146;28;20104;-76
2021/01/11 07:03:46;;;;;;;18.42;9.65;;;2.80;99.90;;;;;;5029302;28;20026;-74
2021/01/11 07:06:31;;;;;;;16.88;10.82;;;2.80;99.90;;;;;;5036055;28;20095;-75
2021/01/11 07:09:23;;;;;;;21.50;9.35;;;2.80;99.90;;;;;;5048794;28;20071;-79
2021/01/11 07:11:50;;;;;;;15.95;10.45;;;2.80;99.90;;;;;;5038060;28;20038;-74
2021/01/11 07:14:23;;;;;;;17.63;10.15;;;2.80;99.90;;;;;;5039304;28;20032;-75
2021/01/11 07:16:52;;;;;;;14.77;9.02;;;2.80;99.90;;;;;;5047181;28;20021;-75
2021/01/11 07:19:36;;;;;;;19.27;10.40;;;2.80;99.90;;;;;;5032071;28;20017;-75
2021/01/11 07:22:09;;;;;;;17.88;9.30;;;2.80;99.90;;;;;;5032360;28;20064;-77
2021/01/11 07:24:38;;;;;;;19.35;9.75;;;2.80;99.90;;;;;;5005418;28;20063;-77
2021/01/11 07:27:04;;;;;;;15.00;9.13;;;2.80;99.90;;;;;;5038809;28;20366;-81
2021/01/11 07:29:29;;;;;;;18.98;9.93;;;2.80;99.90;;;;;;5042374;28;20040;-74
2021/01/11 07:31:55;;;;;;;20.60;10.02;;;2.80;99.90;;;;;;5044620;28;20449;-73
2021/01/11 07:34:24;;;;;;;16.38;9.85;;;2.90;99.90;;;;;;5031899;28;20026;-74
2021/01/11 07:36:55;;;;;;;16.25;9.02;;;2.90;99.90;;;;;;5043237;28;20029;-72
2021/01/11 07:39:27;;;;;;;21.33;9.60;;;2.90;99.90;;;;;;5031558;28;20108;-75
2021/01/11 07:41:58;;;;;;;15.85;10.07;;;3.00;99.90;;;;;;5021187;28;20021;-81
2021/01/11 07:44:25;;;;;;;16.17;8.90;;;3.00;99.90;;;;;;5047003;28;20037;-75
2021/01/11 07:47:10;;;;;;;21.73;10.25;;;3.00;99.90;;;;;;5049515;28;20377;-75
2021/01/11 07:49:38;;;;;;;24.77;10.70;;;3.00;99.90;;;;;;5043870;28;20036;-81
2021/01/11 07:52:15;;;;;;;13.27;8.45;;;3.00;99.90;;;;;;5050744;28;20071;-80
2021/01/11 07:54:41;;;;;;;22.08;10.38;;;3.00;99.90;;;;;;5044827;28;20021;-80
2021/01/11 07:57:15;;;;;;;15.48;10.75;;;3.00;99.90;;;;;;5039999;28;20013;-79
2021/01/11 07:59:42;;;;;;;15.00;9.48;;;3.10;99.90;;;;;;5037453;28;20076;-81
2021/01/11 08:02:13;;;;;;;15.65;9.50;;;3.00;99.90;;;;;;5030547;28;20068;-76
2021/01/11 08:04:40;;;;;;;15.05;9.73;;;3.10;99.90;;;;;;5025818;28;20504;-75
2021/01/11 08:07:07;;;;;;;18.83;9.98;;;3.10;99.90;;;;;;5011435;28;20121;-81
2021/01/11 08:09:34;;;;;;;16.80;10.30;;;3.30;99.90;;;;;;5011786;28;20057;-75
2021/01/11 08:12:17;;;;;;;16.63;11.00;;;3.40;99.90;;;;;;5012789;28;20092;-76
2021/01/11 08:14:47;;;;;;;19.40;11.18;;;3.50;99.90;;;;;;5010541;28;20085;-83
2021/01/11 08:17:23;;;;;;;18.10;10.57;;;3.40;99.90;;;;;;5011253;28;20035;-75
2021/01/11 08:19:53;;;;;;;29.92;11.30;;;3.50;99.90;;;;;;5026330;28;20017;-82
2021/01/11 08:22:20;;;;;;;15.50;9.57;;;3.40;99.90;;;;;;5029439;28;20410;-82
2021/01/11 08:24:55;;;;;;;22.00;9.57;;;3.40;99.90;;;;;;5022977;28;20033;-83
2021/01/11 08:27:30;;;;;;;31.05;10.85;;;3.40;99.90;;;;;;5014998;28;20018;-74
2021/01/11 08:30:01;;;;;;;19.73;11.15;;;3.40;99.90;;;;;;5015518;28;20093;-83
2021/01/11 08:32:27;;;;;;;24.05;11.25;;;3.50;99.90;;;;;;5015603;28;20017;-79
2021/01/11 08:34:55;;;;;;;24.52;11.05;;;3.90;99.90;;;;;;5019395;28;20250;-75
2021/01/11 08:37:20;;;;;;;18.80;10.20;;;4.30;99.90;;;;;;5014872;28;20018;-74
2021/01/11 08:40:05;;;;;;;17.35;9.50;;;4.40;99.90;;;;;;5015133;28;20148;-75
2021/01/11 08:42:31;;;;;;;17.77;9.23;;;4.40;99.90;;;;;;5014685;28;20029;-80
2021/01/11 08:45:29;;;;;;;20.55;10.63;;;4.40;99.90;;;;;;4999626;28;20134;-82
2021/01/11 08:48:12;;;;;;;17.77;9.68;;;4.60;99.90;;;;;;5007075;28;20029;-76
2021/01/11 08:50:57;;;;;;;17.50;10.27;;;4.80;99.90;;;;;;5017344;28;20026;-77
2021/01/11 08:53:26;;;;;;;17.90;10.05;;;5.10;99.90;;;;;;5015022;28;20026;-76
2021/01/11 08:56:08;;;;;;;16.80;10.10;;;5.40;99.90;;;;;;5026235;28;20053;-76
2021/01/11 08:58:36;;;;;;;20.13;11.13;;;5.60;99.90;;;;;;5033323;28;20032;-74
2021/01/11 09:01:11;;;;;;;29.60;10.45;;;5.90;99.90;;;;;;5041125;28;20096;-75
2021/01/11 09:03:50;;;;;;;16.02;8.65;;;6.20;99.90;;;;;;5042417;28;20064;-74
2021/01/11 09:06:45;;;;;;;16.10;10.05;;;6.10;99.90;;;;;;5053395;28;20080;-76
2021/01/11 09:09:17;;;;;;;17.42;9.82;;;6.10;99.90;;;;;;5018123;28;20136;-74
2021/01/11 09:11:44;;;;;;;15.50;9.38;;;6.30;99.90;;;;;;5043673;28;20032;-77
2021/01/11 09:14:15;;;;;;;14.15;8.77;;;6.30;99.90;;;;;;5049561;28;20021;-73
2021/01/11 09:16:46;;;;;;;12.85;9.18;;;6.50;99.90;;;;;;5046511;28;20068;-73
2021/01/11 09:19:13;;;;;;;19.77;9.73;;;6.70;99.90;;;;;;5050460;28;20366;-73
2021/01/11 09:21:41;;;;;;;15.82;9.85;;;6.70;99.90;;;;;;5053364;28;20032;-76
2021/01/11 09:24:08;;;;;;;14.60;8.95;;;6.60;99.90;;;;;;5045829;28;20027;-74
2021/01/11 09:26:39;;;;;;;19.55;9.60;;;6.50;99.90;;;;;;5048894;28;20064;-74
2021/01/11 09:29:06;;;;;;;18.52;8.90;;;6.70;99.90;;;;;;5032404;28;20029;-74
2021/01/11 09:31:32;;;;;;;18.25;9.43;;;7.00;99.90;;;;;;5033651;28;20026;-74
2021/01/11 09:33:58;;;;;;;23.60;9.02;;;7.10;99.90;;;;;;5036415;28;20468;-74
2021/01/11 09:36:24;;;;;;;18.60;10.05;;;6.60;99.90;;;;;;5036403;28;20037;-74
2021/01/11 09:38:50;;;;;;;14.27;9.38;;;6.00;99.90;;;;;;5051796;28;20017;-77
2021/01/11 09:41:17;;;;;;;13.77;8.70;;;5.50;99.90;;;;;;5048036;28;20029;-76
2021/01/11 09:43:43;;;;;;;15.02;9.75;;;5.30;99.90;;;;;;5050613;28;20116;-76
2021/01/11 09:46:10;;;;;;;20.83;9.48;;;5.10;99.90;;;;;;5048958;28;20068;-75
2021/01/11 09:48:36;;;;;;;16.60;9.23;;;5.10;99.90;;;;;;5028964;28;20018;-76
2021/01/11 09:51:03;;;;;;;17.70;8.38;;;5.00;99.90;;;;;;5029248;28;20021;-76
2021/01/11 09:53:29;;;;;;;18.13;9.73;;;5.10;99.90;;;;;;5039531;28;20025;-76
2021/01/11 09:55:55;;;;;;;20.88;9.32;;;5.20;99.90;;;;;;5043532;28;20025;-74
2021/01/11 09:58:21;;;;;;;15.68;8.40;;;5.30;99.90;;;;;;5050475;28;20082;-83
2021/01/11 10:00:46;;;;;;;12.93;8.75;;;5.30;99.90;;;;;;5049428;28;20049;-80
2021/01/11 10:03:12;;;;;;;19.65;9.90;;;5.20;99.90;;;;;;5047898;28;20025;-76
2021/01/11 10:05:38;;;;;;;21.17;8.68;;;5.30;99.90;;;;;;5051284;28;20031;-75
2021/01/11 10:08:04;;;;;;;14.77;9.40;;;5.30;99.90;;;;;;5029488;28;20018;-75
2021/01/11 10:10:30;;;;;;;15.30;9.52;;;5.50;99.90;;;;;;5051220;28;20108;-75
2021/01/11 10:12:55;;;;;;;13.90;8.75;;;5.60;99.90;;;;;;5049711;28;20140;-75
2021/01/11 10:15:22;;;;;;;16.30;9.30;;;5.60;99.90;;;;;;5052298;28;20174;-75
2021/01/11 10:17:47;;;;;;;14.35;8.80;;;6.00;99.90;;;;;;5049451;28;20603;-77
2021/01/11 10:20:14;;;;;;;20.05;9.05;;;6.60;99.90;;;;;;5046738;28;20056;-76
2021/01/11 10:22:40;;;;;;;19.15;9.63;;;7.00;99.90;;;;;;5049931;28;20116;-74
2021/01/11 10:25:07;;;;;;;12.02;8.20;;;7.80;99.90;;;;;;5045209;28;20519;-76
2021/01/11 10:27:34;;;;;;;14.20;8.82;;;8.30;99.90;;;;;;5039849;28;20021;-74
2021/01/11 10:29:59;;;;;;;14.43;9.05;;;9.00;99.90;;;;;;5041188;28;20040;-87
2021/01/11 10:32:25;;;;;;;13.48;8.23;;;9.40;99.90;;;;;;5046417;28;20021;-82
2021/01/11 10:34:51;;;;;;;20.38;8.93;;;9.60;99.40;;;;;;5028992;28;20031;-81
2021/01/11 10:37:17;;;;;;;13.85;8.35;;;10.10;98.80;;;;;;5041100;28;20041;-80
2021/01/11 10:39:43;;;;;;;15.02;7.95;;;10.70;97.40;;;;;;5022553;28;20053;-84
2021/01/11 10:42:09;;;;;;;12.65;8.32;;;11.40;95.90;;;;;;5041030;28;20032;-84
2021/01/11 10:44:34;;;;;;;26.83;7.32;;;12.10;94.60;;;;;;5032698;28;20033;-82
2021/01/11 10:47:01;;;;;;;13.38;7.82;;;13.30;92.40;;;;;;5046939;28;20017;-82
2021/01/11 10:49:28;;;;;;;10.63;7.55;;;14.30;89.30;;;;;;5043921;28;20080;-78
2021/01/11 10:51:57;;;;;;;10.18;6.60;;;14.60;85.60;;;;;;5046603;28;20033;-79
2021/01/11 10:54:26;;;;;;;9.23;6.63;;;13.60;84.70;;;;;;5043770;28;20172;-77
2021/01/11 10:56:53;;;;;;;14.45;7.68;;;12.50;85.90;;;;;;5043020;28;20029;-81
2021/01/11 10:59:19;;;;;;;11.02;7.43;;;11.90;87.40;;;;;;5048813;28;20028;-77
2021/01/11 11:01:46;;;;;;;11.27;7.53;;;11.80;87.90;;;;;;5043584;28;20073;-77
2021/01/11 11:04:12;;;;;;;11.80;7.97;;;12.40;88.20;;;;;;5039204;28;20025;-83
2021/01/11 11:06:37;;;;;;;9.05;6.47;;;11.70;87.40;;;;;;5030953;28;20033;-78
2021/01/11 11:09:04;;;;;;;13.65;7.00;;;10.90;88.30;;;;;;5031457;28;20417;-82
2021/01/11 11:11:29;;;;;;;11.60;6.78;;;10.20;90.30;;;;;;5046121;28;20060;-82
2021/01/11 11:13:55;;;;;;;11.82;7.60;;;9.80;90.80;;;;;;5027104;28;20041;-80
2021/01/11 11:16:22;;;;;;;12.55;7.53;;;9.40;91.30;;;;;;5044148;28;20531;-80
2021/01/11 11:18:47;;;;;;;13.18;7.57;;;9.60;92.00;;;;;;5040015;28;20131;-79
2021/01/11 11:21:13;;;;;;;11.30;7.80;;;9.40;91.30;;;;;;5036860;28;20028;-78
2021/01/11 11:23:40;;;;;;;12.40;7.05;;;9.30;91.70;;;;;;5037472;28;20045;-78
2021/01/11 11:26:07;;;;;;;10.93;6.80;;;9.70;91.30;;;;;;5027493;28;20119;-78
2021/01/11 11:28:34;;;;;;;10.13;7.15;;;9.50;91.60;;;;;;5048523;28;20025;-78
2021/01/11 11:31:00;;;;;;;10.43;7.35;;;9.60;91.80;;;;;;5026794;28;20372;-77
2021/01/11 11:33:26;;;;;;;9.68;6.55;;;9.60;91.60;;;;;;5051668;28;20242;-77
2021/01/11 11:35:53;;;;;;;9.70;6.47;;;9.30;91.70;;;;;;5048128;28;20104;-78
2021/01/11 11:38:20;;;;;;;11.25;7.20;;;8.90;92.20;;;;;;5048597;28;20021;-80
2021/01/11 11:40:45;;;;;;;11.18;7.00;;;8.10;92.80;;;;;;5034154;28;20591;-83
2021/01/11 11:43:12;;;;;;;12.10;7.35;;;7.70;93.70;;;;;;5057179;28;20018;-83
2021/01/11 11:45:37;;;;;;;12.40;7.28;;;7.60;94.50;;;;;;5029752;28;20037;-83
2021/01/11 11:48:03;;;;;;;10.75;7.15;;;7.30;94.60;;;;;;5051010;28;20040;-82
2021/01/11 11:50:29;;;;;;;12.82;7.38;;;7.10;95.00;;;;;;5055563;28;20035;-84
2021/01/11 11:52:55;;;;;;;11.70;8.13;;;6.90;94.90;;;;;;5037713;28;20025;-84
2021/01/11 11:55:21;;;;;;;11.60;7.90;;;6.40;95.70;;;;;;5058400;28;20033;-81
2021/01/11 11:57:47;;;;;;;12.35;8.18;;;6.40;96.40;;;;;;5049107;28;20025;-83
2021/01/11 12:00:15;;;;;;;10.65;7.32;;;6.30;96.50;;;;;;5053274;28;20061;-86
2021/01/11 12:02:46;;;;;;;15.07;8.10;;;6.30;96.70;;;;;;5048380;28;20025;-85
2021/01/11 12:05:13;;;;;;;13.75;7.63;;;6.20;97.10;;;;;;5049689;28;20083;-80
2021/01/11 12:07:40;;;;;;;17.73;7.97;;;6.10;97.20;;;;;;5050857;28;20033;-85
2021/01/11 12:10:07;;;;;;;11.23;7.50;;;6.10;97.20;;;;;;5054759;28;20485;-76
2021/01/11 12:12:34;;;;;;;11.38;7.20;;;6.00;97.20;;;;;;5031271;28;20045;-85
2021/01/11 12:15:02;;;;;;;13.02;8.35;;;5.80;97.40;;;;;;5028456;28;20038;-84
2021/01/11 12:17:28;;;;;;;15.15;8.43;;;5.80;97.80;;;;;;5044079;28;20025;-77
2021/01/11 12:19:54;;;;;;;11.88;7.65;;;5.70;98.90;;;;;;5047879;28;20112;-82
2021/01/11 12:22:20;;;;;;;18.17;7.97;;;5.70;98.20;;;;;;5046327;28;20099;-85
2021/01/11 12:24:45;;;;;;;17.55;8.23;;;5.70;98.80;;;;;;5050774;28;20034;-86
2021/01/11 12:27:11;;;;;;;10.75;7.03;;;5.80;98.80;;;;;;5048370;28;20018;-80
2021/01/11 12:29:37;;;;;;;15.38;7.95;;;5.70;98.50;;;;;;5045557;28;20031;-83
2021/01/11 12:32:07;;;;;;;12.25;7.18;;;5.60;98.80;;;;;;5029305;28;20036;-85
2021/01/11 12:34:38;;;;;;;15.45;8.07;;;5.50;99.00;;;;;;5052925;28;20175;-76
2021/01/11 12:37:04;;;;;;;14.13;7.90;;;5.50;99.50;;;;;;5051666;28;20421;-75
2021/01/11 12:39:30;;;;;;;11.45;7.13;;;5.50;99.50;;;;;;5057621;28;20017;-84
2021/01/11 12:41:56;;;;;;;10.95;8.43;;;5.30;99.40;;;;;;5052773;28;20027;-86
2021/01/11 12:44:22;;;;;;;14.02;7.95;;;5.30;99.80;;;;;;5045403;28;20028;-76
2021/01/11 12:46:47;;;;;;;16.98;8.45;;;5.20;99.90;;;;;;5051326;28;20029;-75
2021/01/11 12:49:13;;;;;;;15.52;7.97;;;5.10;99.90;;;;;;5053262;28;20394;-82
2021/01/11 12:51:39;;;;;;;12.20;7.47;;;5.10;99.90;;;;;;5056359;28;20043;-77
2021/01/11 12:54:05;;;;;;;13.57;7.70;;;5.10;99.90;;;;;;5056155;28;20386;-77